Latest Weather Observations for Yulara

IDD60801

Issued at 2:11 pm CST Sunday 29 January 2023 (issued every 10 minutes, with the page automatically refreshed every 10 minutes)

About weather observations | Map of weather stations | Latest weather observations for NT | Other Formats
Station Details ID: 015635 Name: YULARA AIRPORT Lat: -25.19 Lon: 130.97 Height: 492.0 m
Data from the previous 72 hours. | See also: Recent months at Yulara
Date/Time
CST
Temp
°C
App
Temp
°C
Dew
Point
°C
Rel
Hum
%
Delta-T
°C
Wind Press
QNH
hPa
Press
MSL
hPa
Rain since
9am
mm
Dir  Spd
km/h
Gust
km/h
Spd
kts
Gust
kts
29/02:00pm 27.7 28.8 22.0 71 3.9 S 19 24 10 13 1009.7 1005.7 1.8
29/01:30pm 26.8 28.3 22.0 75 3.3 S 17 20 9 11 1010.2 1006.3 1.2
29/01:00pm 27.9 31.7 22.4 72 3.8 E 6 11 3 6 1010.4 1006.4 1.2
29/12:31pm 26.1 29.4 22.6 81 2.4 ESE 9 13 5 7 1010.8 1006.8 1.0
29/12:30pm 26.1 29.7 23.0 83 2.1 ESE 9 13 5 7 1010.8 1006.8 1.0
29/12:12pm 25.1 27.8 22.8 87 1.6 SSE 13 17 7 9 1010.9 1006.9 0.8
29/12:00pm 25.7 28.1 22.2 81 2.4 SSE 13 19 7 10 1010.9 1006.9 0.2
29/11:30am 26.5 28.9 21.5 74 3.4 ESE 11 19 6 10 1011.0 1007.0 0.2
29/11:00am 27.1 29.0 22.1 74 3.4 E 15 20 8 11 1011.1 1007.1 0.2
29/10:34am 26.9 28.7 21.9 74 3.4 ESE 15 20 8 11 1011.2 1007.2 0.2
29/10:30am 26.5 28.7 21.9 76 3.1 ESE 13 20 7 11 1011.2 1007.2 0.2
29/10:00am 25.6 27.3 21.7 79 2.6 SE 15 20 8 11 1011.2 1007.2 0.0
29/09:30am 24.3 26.1 21.2 83 2.1 SSE 13 19 7 10 1011.1 1007.1 0.0
29/09:12am 24.1 25.5 21.0 83 2.1 SSE 15 20 8 11 1011.0 1007.0 0.0
29/09:00am 24.3 26.0 21.6 85 1.8 SSE 15 20 8 11 1011.0 1007.0 7.6
29/08:30am 23.3 24.5 21.4 89 1.3 SSE 17 22 9 12 1011.0 1007.0 7.6
29/08:00am 22.5 23.5 21.0 91 1.0 SSE 17 24 9 13 1010.9 1006.9 7.6
29/07:30am 22.3 24.3 22.3 100 0.0 SSE 15 20 8 11 1010.6 1006.6 7.6
29/07:00am 22.2 24.6 22.2 100 0.0 S 13 17 7 9 1010.4 1006.4 7.6
29/06:30am 22.2 24.6 22.2 100 0.0 S 13 19 7 10 1010.0 1006.1 7.6
29/06:01am 22.1 24.4 22.1 100 0.0 S 13 17 7 9 1009.5 1005.5 7.6
29/06:00am 22.2 24.6 22.2 100 0.0 S 13 17 7 9 1009.5 1005.5 7.6
29/05:30am 22.1 24.4 22.1 100 0.0 S 13 19 7 10 1009.1 1005.1 7.6
29/05:10am 22.0 24.3 22.0 100 0.0 S 13 17 7 9 1008.7 1004.7 7.6
29/05:08am 21.9 24.1 21.9 100 0.0 S 13 17 7 9 1008.7 1004.7 7.6
29/05:00am 21.9 24.1 21.9 100 0.0 S 13 17 7 9 1008.7 1004.7 7.6
29/04:30am 22.0 24.6 22.0 100 0.0 SSW 11 15 6 8 1008.8 1004.8 7.6
29/04:29am 22.0 24.3 22.0 100 0.0 SSW 13 17 7 9 1008.8 1004.8 7.6
29/04:05am 22.1 24.8 22.1 100 0.0 SSW 11 17 6 9 1008.8 1004.8 7.6
29/04:00am 22.1 24.4 22.1 100 0.0 S 13 19 7 10 1008.7 1004.7 7.6
29/03:30am 22.3 24.3 22.3 100 0.0 S 15 20 8 11 1008.5 1004.5 7.6
29/03:14am 22.5 25.4 22.5 100 0.0 SSW 11 15 6 8 1008.5 1004.5 7.4
29/03:00am 22.6 26.3 22.6 100 0.0 SE 7 9 4 5 1008.5 1004.5 7.0
29/02:38am 22.7 25.7 22.7 100 0.0 ENE 11 13 6 7 1008.5 1004.5 5.4
29/02:30am 22.7 25.3 22.7 100 0.0 ENE 13 17 7 9 1008.6 1004.6 5.2
29/02:25am 22.8 25.5 22.8 100 0.0 NE 13 17 7 9 1008.7 1004.7 5.2
29/02:00am 23.1 26.3 23.1 100 0.0 ENE 11 15 6 8 1008.6 1004.6 5.0
29/01:30am 23.6 27.2 23.1 97 0.3 NE 9 13 5 7 1008.8 1004.8 5.0
29/01:00am 23.8 27.0 22.4 92 1.0 ESE 9 11 5 6 1008.9 1004.9 5.0
29/12:30am 23.8 27.5 23.3 97 0.3 ENE 9 13 5 7 1009.1 1005.1 5.0
29/12:00am 24.1 28.7 24.1 100 0.0 ENE 7 9 4 5 1009.4 1005.4 5.0
 
Date/Time
CST
Temp
°C
App
Temp
°C
Dew
Point
°C
Rel
Hum
%
Delta-T
°C
Wind Press
QNH
hPa
Press
MSL
hPa
Rain since
9am
mm
Dir  Spd
km/h
Gust
km/h
Spd
kts
Gust
kts
28/11:30pm 24.4 28.2 24.1 98 0.2 E 11 15 6 8 1009.6 1005.6 4.8
28/11:17pm 24.5 28.0 23.6 95 0.6 E 11 13 6 7 1009.7 1005.7 4.8
28/11:00pm 24.4 28.2 23.5 95 0.6 E 9 13 5 7 1009.7 1005.7 4.8
28/10:32pm 24.5 28.5 22.8 90 1.2 SE 6 9 3 5 1009.4 1005.4 4.8
28/10:30pm 24.4 28.3 22.5 89 1.3 SE 6 9 3 5 1009.4 1005.4 4.8
28/10:00pm 24.3 28.0 22.2 88 1.4 SE 6 9 3 5 1009.1 1005.1 4.8
28/09:30pm 24.3 28.0 22.2 88 1.4 SE 6 9 3 5 1008.9 1004.9 4.8
28/09:00pm 24.1 27.9 22.7 92 1.0 SSE 7 9 4 5 1008.5 1004.5 4.8
28/08:30pm 24.2 27.5 22.5 90 1.2 SE 9 11 5 6 1007.8 1003.8 4.8
28/08:00pm 24.2 26.8 21.9 87 1.6 SSE 11 15 6 8 1007.5 1003.5 4.8
28/07:30pm 24.4 27.2 22.3 88 1.4 SE 11 15 6 8 1007.0 1003.0 4.8
28/07:00pm 24.5 26.7 22.6 89 1.3 S 15 20 8 11 1006.4 1002.4 4.8
28/06:30pm 24.2 26.0 22.6 91 1.1 S 17 24 9 13 1006.4 1002.4 4.8
28/06:00pm 23.9 26.0 22.5 92 1.0 S 15 20 8 11 1006.5 1002.5 4.8
28/05:53pm 24.2 26.6 23.0 93 0.8 S 15 20 8 11 1006.6 1002.6 4.8
28/05:36pm 24.6 26.9 22.8 90 1.2 S 15 20 8 11 1006.6 1002.6 4.6
28/05:30pm 24.8 27.1 23.4 92 1.0 S 17 22 9 12 1006.4 1002.4 4.6
28/05:00pm 25.0 28.1 24.8 99 0.1 SSW 17 24 9 13 1006.2 1002.2 4.6
28/04:39pm 24.4 26.7 24.4 100 0.0 SW 20 28 11 15 1006.4 1002.4 4.6
28/04:30pm 24.3 26.5 24.3 100 0.0 SW 20 30 11 16 1006.4 1002.4 4.4
28/04:11pm 25.0 25.3 22.3 85 1.8 W 24 32 13 17 1006.5 1002.5 2.2
28/04:00pm 27.2 27.5 21.5 71 3.9 WSW 22 33 12 18 1005.9 1001.9 0.8
28/03:30pm 27.6 31.1 22.1 72 3.8 S 7 9 4 5 1005.2 1001.2 0.8
28/03:00pm 27.3 27.6 21.6 71 3.9 ENE 22 35 12 19 1005.2 1001.2 0.4
28/02:30pm 30.6 33.7 21.1 57 6.5 ESE 6 11 3 6 1005.6 1001.6 0.2
28/02:00pm 27.3 29.7 21.6 71 3.9 N 11 30 6 16 1006.2 1002.2 0.2
28/01:30pm 30.7 31.5 19.1 50 7.7 N 13 19 7 10 1006.5 1002.5 0.0
28/01:00pm 30.3 31.7 19.6 52 7.1 N 11 19 6 10 1006.7 1002.7 0.0
28/12:30pm 29.9 30.7 19.0 52 7.2 N 13 19 7 10 1007.3 1003.3 0.0
28/12:00pm 28.9 30.8 19.8 58 6.1 NNW 9 20 5 11 1007.9 1004.0 0.0
28/11:30am 28.2 29.4 20.0 61 5.5 N 13 20 7 11 1008.6 1004.6 0.0
28/11:00am 27.3 29.0 20.9 68 4.3 NNE 13 20 7 11 1009.2 1005.2 0.0
28/10:30am 25.9 27.4 20.5 72 3.6 N 13 17 7 9 1009.6 1005.6 0.0
28/10:00am 25.2 27.3 20.9 77 2.9 NNE 11 15 6 8 1009.9 1006.0 0.0
28/09:30am 24.0 26.3 20.7 82 2.2 NE 9 13 5 7 1010.0 1006.1 0.0
28/09:00am 23.7 26.1 20.8 84 1.9 ENE 9 11 5 6 1010.0 1006.1 4.0
28/08:30am 23.1 25.5 20.8 87 1.5 E 9 13 5 7 1009.8 1005.9 4.0
28/08:00am 23.0 25.7 21.3 90 1.1 ENE 9 11 5 6 1009.7 1005.7 4.0
28/07:30am 22.7 24.8 21.0 90 1.1 ENE 11 17 6 9 1009.5 1005.5 4.0
28/07:00am 22.5 24.7 21.1 92 0.9 ENE 11 13 6 7 1009.3 1005.3 4.0
28/06:30am 22.6 24.7 20.1 86 1.6 NE 9 11 5 6 1009.1 1005.1 4.0
28/06:00am 22.6 24.3 20.1 86 1.6 ENE 11 15 6 8 1008.8 1004.8 4.0
28/05:30am 22.9 24.5 19.9 83 2.0 NE 11 13 6 7 1008.8 1004.8 4.0
28/05:00am 23.1 24.4 19.3 79 2.5 NNE 11 15 6 8 1008.4 1004.4 4.0
28/04:30am 23.0 23.4 19.8 82 2.1 N 17 20 9 11 1008.4 1004.4 4.0
28/04:00am 24.0 24.5 19.3 75 3.1 N 15 24 8 13 1008.4 1004.4 4.0
28/03:30am 24.2 26.5 19.9 77 2.8 NNW 7 9 4 5 1008.5 1004.5 4.0
28/03:00am 24.8 26.2 19.6 73 3.4 N 11 17 6 9 1008.5 1004.5 4.0
28/02:30am 24.7 26.9 20.4 77 2.9 WNW 9 11 5 6 1008.3 1004.3 4.0
28/02:00am 24.8 28.1 21.5 82 2.2 N 6 7 3 4 1008.6 1004.6 4.0
28/01:30am 24.8 27.9 21.1 80 2.5 NW 6 7 3 4 1008.5 1004.5 4.0
28/01:00am 25.0 28.9 20.3 75 3.1 CALM 0 0 0 0 1008.4 1004.4 4.0
28/12:30am 24.7 28.8 20.8 79 2.6 CALM 0 0 0 0 1008.7 1004.7 4.0
28/12:00am 24.4 27.2 21.5 84 2.0 W 9 11 5 6 1009.0 1005.0 4.0
 
Date/Time
CST
Temp
°C
App
Temp
°C
Dew
Point
°C
Rel
Hum
%
Delta-T
°C
Wind Press
QNH
hPa
Press
MSL
hPa
Rain since
9am
mm
Dir  Spd
km/h
Gust
km/h
Spd
kts
Gust
kts
27/11:30pm 24.6 27.0 20.9 80 2.5 WNW 9 13 5 7 1009.1 1005.1 4.0
27/11:00pm 25.0 28.7 20.0 74 3.3 CALM 0 7 0 4 1009.1 1005.1 4.0
27/10:30pm 24.7 28.6 20.4 77 2.9 CALM 0 0 0 0 1009.4 1005.4 4.0
27/10:00pm 24.5 27.5 20.8 80 2.5 WNW 6 7 3 4 1009.4 1005.4 4.0
27/09:30pm 24.5 26.8 20.6 79 2.6 WNW 9 11 5 6 1009.5 1005.5 4.0
27/09:00pm 24.5 26.7 20.4 78 2.7 WNW 9 11 5 6 1009.4 1005.4 4.0
27/08:30pm 24.5 26.5 20.8 80 2.5 WNW 11 13 6 7 1009.4 1005.4 4.0
27/08:00pm 24.8 27.1 21.3 81 2.4 WNW 11 15 6 8 1009.5 1005.5 4.0
27/07:30pm 24.2 27.4 21.7 86 1.7 W 7 11 4 6 1009.5 1005.5 4.0
27/07:00pm 24.0 26.1 20.9 83 2.1 S 11 15 6 8 1009.0 1005.0 3.8
27/06:43pm 24.6 25.6 21.1 81 2.3 E 17 22 9 12 1009.0 1005.0 3.8
27/06:30pm 23.9 24.5 21.4 86 1.7 N 20 35 11 19 1009.4 1005.4 3.0
27/06:24pm 23.9 25.1 19.8 78 2.7 WNW 13 35 7 19 1009.2 1005.2 2.6
27/06:00pm 25.3 26.8 20.5 75 3.2 S 13 19 7 10 1008.3 1004.3 1.4
27/05:46pm 25.1 25.4 20.4 75 3.1 ESE 19 28 10 15 1008.0 1004.1 1.4
27/05:36pm 25.3 23.7 20.8 76 3.0 ENE 30 46 16 25 1007.8 1003.8 1.2
27/05:34pm 24.8 22.8 20.7 78 2.7 ENE 32 46 17 25 1007.9 1004.0 1.2
27/05:30pm 25.0 21.6 19.8 73 3.4 NE 37 48 20 26 1007.9 1004.0 0.8
27/05:26pm 25.7 22.7 19.8 70 3.9 NE 35 48 19 26 1007.7 1003.7 0.0
27/05:15pm 30.9 29.3 16.1 41 9.4 NNE 19 44 10 24 1007.4 1003.4 0.0
27/05:00pm 32.6 33.1 15.1 34 11.0 WNW 6 9 3 5 1007.0 1003.0 0.0
27/04:30pm 30.0 26.9 17.5 47 8.1 NW 30 41 16 22 1007.1 1003.1 0.0
27/04:12pm 33.0 31.3 14.6 33 11.5 NNE 17 39 9 21 1007.1 1003.1 0.0
27/04:00pm 33.8 32.3 14.3 31 12.2 NNE 15 20 8 11 1007.1 1003.1 0.0
27/03:30pm 34.1 33.5 14.6 31 12.3 N 11 19 6 10 1007.5 1003.5 0.0
27/03:00pm 34.1 31.2 14.1 30 12.5 N 22 32 12 17 1008.0 1004.1 0.0
27/02:30pm 34.4 31.8 13.8 29 12.8 N 20 30 11 16 1008.4 1004.4 0.0
27/02:00pm 34.8 31.4 13.6 28 13.2 NNW 24 35 13 19 1008.8 1004.8 0.0
27/01:30pm 35.9 32.8 13.4 26 14.0 NNW 22 33 12 18 1009.2 1005.2 0.0
27/01:00pm 35.6 33.9 14.8 28 13.2 N 17 37 9 20 1009.6 1005.6 0.0
27/12:30pm 34.4 32.7 14.8 30 12.4 NNE 17 30 9 16 1010.0 1006.1 0.0
27/12:00pm 33.2 31.3 15.2 33 11.4 NNW 19 26 10 14 1010.6 1006.6 0.0
27/11:30am 33.3 32.2 15.3 34 11.4 NNW 15 22 8 12 1011.0 1007.0 0.0
27/11:00am 32.8 32.6 15.8 36 10.8 NNW 11 20 6 11 1011.4 1007.4 0.0
27/10:30am 32.3 32.7 16.2 38 10.3 NW 9 13 5 7 1011.6 1007.6 0.0
27/10:00am 31.8 32.1 16.9 40 9.6 NW 11 20 6 11 1012.1 1008.2 0.0
27/09:30am 31.1 30.9 16.7 42 9.2 W 13 17 7 9 1012.2 1008.3 0.0
27/09:00am 30.3 29.6 17.4 46 8.3 NW 17 22 9 12 1012.3 1008.4 0.2
27/08:30am 29.7 30.7 17.8 48 7.7 NW 9 15 5 8 1012.2 1008.3 0.2
27/08:00am 27.7 29.6 19.8 62 5.2 NNW 9 13 5 7 1012.2 1008.3 0.2
27/07:30am 26.3 28.2 19.7 67 4.4 N 9 11 5 6 1012.3 1008.4 0.2
27/07:00am 25.4 27.3 19.8 71 3.7 N 9 11 5 6 1012.0 1008.1 0.2
27/06:30am 25.0 25.4 18.9 69 4.0 WNW 15 22 8 12 1011.3 1007.3 0.2
27/06:00am 24.1 24.1 18.1 69 3.8 WNW 15 17 8 9 1011.0 1007.0 0.2
27/05:30am 25.1 24.0 17.3 62 5.0 NNW 19 24 10 13 1011.1 1007.1 0.0
27/05:00am 26.5 25.9 17.6 58 5.7 ENE 17 32 9 17 1011.6 1007.6 0.0
27/04:46am 27.6 24.7 16.2 49 7.2 ENE 26 39 14 21 1011.3 1007.3 0.0
27/04:30am 27.0 27.3 16.0 51 6.9 N 9 13 5 7 1010.4 1006.4 0.0
27/04:00am 27.1 27.7 15.8 50 7.1 NNW 7 9 4 5 1009.7 1005.7 0.0
27/03:30am 27.3 28.3 16.3 51 6.9 NW 6 6 3 3 1009.4 1005.4 0.0
27/03:00am 27.7 28.4 15.7 48 7.5 NW 6 7 3 4 1009.5 1005.5 0.0
27/02:30am 28.5 29.1 15.4 45 8.2 WNW 6 9 3 5 1009.7 1005.7 0.0
27/02:00am 28.8 28.8 15.3 43 8.4 NNW 9 13 5 7 1010.0 1006.1 0.0
27/01:30am 28.9 29.0 15.4 44 8.4 N 9 11 5 6 1010.5 1006.5 0.0
27/01:00am 29.3 28.9 15.1 42 8.8 N 11 13 6 7 1010.7 1006.7 0.0
27/12:30am 30.1 29.3 15.0 40 9.4 NNW 13 19 7 10 1010.7 1006.7 0.0
27/12:00am 31.0 28.7 14.6 37 10.2 NNW 20 28 11 15 1010.7 1006.7 0.0
 
Date/Time
CST
Temp
°C
App
Temp
°C
Dew
Point
°C
Rel
Hum
%
Delta-T
°C
Wind Press
QNH
hPa
Press
MSL
hPa
Rain since
9am
mm
Dir  Spd
km/h
Gust
km/h
Spd
kts
Gust
kts
26/11:30pm 31.9 28.4 14.5 34 10.9 NNW 26 35 14 19 1010.8 1006.8 0.0
26/11:00pm 32.0 28.7 12.8 31 11.7 NNW 22 28 12 15 1010.7 1006.7 0.0
26/10:30pm 30.5 30.1 9.9 28 11.9 SSE 2 7 1 4 1009.8 1005.9 0.0
26/10:00pm 30.8 29.6 7.9 24 12.8 E 4 17 2 9 1009.6 1005.6 0.0
26/09:30pm 31.7 30.9 8.0 23 13.4 NNE 2 7 1 4 1009.4 1005.4 0.0
26/09:00pm 33.6 31.5 8.3 21 14.5 NE 9 13 5 7 1009.1 1005.1 0.0
26/08:30pm 34.5 31.9 5.9 17 15.8 NE 9 11 5 6 1008.7 1004.7 0.0
26/08:00pm 35.7 32.7 4.1 14 17.1 E 9 13 5 7 1008.3 1004.3 0.0
26/07:30pm 37.6 33.3 3.4 12 18.5 E 15 22 8 12 1007.9 1004.0 0.0
26/07:00pm 38.7 33.6 3.0 11 19.3 ENE 19 28 10 15 1007.8 1003.8 0.0
26/06:30pm 38.9 34.2 3.1 11 19.4 ENE 17 24 9 13 1007.6 1003.6 0.0
26/06:00pm 39.2 33.7 2.0 10 19.9 ENE 20 32 11 17 1007.7 1003.7 0.0
26/05:30pm 39.4 35.5 3.5 11 19.7 ENE 13 20 7 11 1007.7 1003.7 0.0
26/05:00pm 39.3 35.4 3.4 11 19.6 NE 13 28 7 15 1007.8 1003.8 0.0
26/04:30pm 40.2 35.4 2.8 10 20.3 E 17 30 9 16 1008.3 1004.3 0.0
26/04:00pm 39.0 33.4 3.2 11 19.4 ENE 22 37 12 20 1008.7 1004.7 0.0
26/03:30pm 39.9 36.1 3.9 11 19.9 ENE 13 24 7 13 1009.0 1005.0 0.0
26/03:00pm 38.7 34.4 5.4 13 18.7 ENE 17 24 9 13 1009.5 1005.5 0.0
26/02:30pm 39.1 36.0 5.7 13 18.8 ENE 11 22 6 12 1010.1 1006.2 0.0

Other formats

Comma delimited format used in spreadsheet applications
http://www.bom.gov.au/fwo/IDD60801/IDD60801.94462.axf

JavaScript Object Notation format (JSON) in row-major order
http://www.bom.gov.au/fwo/IDD60801/IDD60801.94462.json

Data quality

Most of these data are generated automatically and are frequently updated. Quality checks on data are not normally performed. It is possible for incorrect values to appear. Refer to information at About Latest Weather Observations and please check the disclaimer before using these data.